createdAt,value
2019-06-26T00:00:18.075Z,0.00
2019-06-26T00:01:18.374Z,0.00
2019-06-26T00:02:18.813Z,0.00
2019-06-26T00:03:19.255Z,0.00
2019-06-26T00:04:19.702Z,0.00
2019-06-26T00:05:20.129Z,0.00
2019-06-26T00:06:20.613Z,0.00
2019-06-26T00:07:20.985Z,0.00
2019-06-26T00:08:21.400Z,0.00
2019-06-26T00:09:21.822Z,0.00
2019-06-26T00:10:22.316Z,0.00
2019-06-26T00:11:22.686Z,0.00
2019-06-26T00:12:23.153Z,0.00
2019-06-26T00:13:26.109Z,0.00
2019-06-26T00:14:24.040Z,0.00
2019-06-26T00:15:24.527Z,0.00
2019-06-26T00:16:24.853Z,0.00
2019-06-26T00:17:25.313Z,0.00
2019-06-26T00:18:25.970Z,0.00
2019-06-26T00:19:26.179Z,0.00
2019-06-26T00:20:26.648Z,0.00
2019-06-26T00:21:27.048Z,0.00
2019-06-26T00:22:27.549Z,0.00
2019-06-26T00:23:27.882Z,0.00
2019-06-26T00:24:28.349Z,0.00
2019-06-26T00:25:28.819Z,0.00
2019-06-26T00:26:29.217Z,0.00
2019-06-26T00:27:29.667Z,0.00
2019-06-26T00:28:30.080Z,0.00
2019-06-26T00:29:30.501Z,0.00
2019-06-26T00:30:31.016Z,0.00
2019-06-26T00:31:31.473Z,0.00
2019-06-26T00:32:31.832Z,0.00
2019-06-26T00:33:32.227Z,0.00
2019-06-26T00:34:32.672Z,0.00
2019-06-26T00:35:33.146Z,0.00
2019-06-26T00:36:33.546Z,0.00
2019-06-26T00:37:34.001Z,0.00
2019-06-26T00:38:34.420Z,0.00
2019-06-26T00:39:34.993Z,0.00
2019-06-26T00:40:35.321Z,0.00
2019-06-26T00:41:35.711Z,0.00
2019-06-26T00:42:36.165Z,0.00
2019-06-26T00:43:42.308Z,0.00
2019-06-26T00:44:38.018Z,0.00
2019-06-26T00:45:37.480Z,0.00
2019-06-26T00:46:37.892Z,0.00
2019-06-26T00:47:38.395Z,0.00
2019-06-26T00:48:38.748Z,0.00
2019-06-26T00:49:39.182Z,0.00
2019-06-26T00:50:39.630Z,0.00
2019-06-26T00:51:40.046Z,0.00
2019-06-26T00:52:40.507Z,0.00
2019-06-26T00:53:40.926Z,0.00
2019-06-26T00:54:41.363Z,0.00
2019-06-26T00:55:41.941Z,0.00
2019-06-26T00:56:42.199Z,0.00
2019-06-26T00:57:42.670Z,0.00
2019-06-26T00:58:43.100Z,0.00
2019-06-26T00:59:43.521Z,0.00
2019-06-26T01:00:44.060Z,0.00
2019-06-26T01:01:44.398Z,0.00
2019-06-26T01:02:44.875Z,0.00
2019-06-26T01:03:45.314Z,0.00
2019-06-26T01:04:45.668Z,0.00
2019-06-26T01:05:46.150Z,0.00
2019-06-26T01:06:46.550Z,0.00
2019-06-26T01:07:47.005Z,0.00
2019-06-26T01:08:47.404Z,0.00
2019-06-26T01:09:47.855Z,0.00
2019-06-26T01:10:48.325Z,0.00
2019-06-26T01:11:48.740Z,0.00
2019-06-26T01:12:49.225Z,0.00
2019-06-26T01:13:57.757Z,0.00
2019-06-26T01:14:51.037Z,0.00
2019-06-26T01:15:50.493Z,0.00
2019-06-26T01:16:50.892Z,0.00
2019-06-26T01:17:51.327Z,0.00
2019-06-26T01:18:51.775Z,0.00
2019-06-26T01:19:52.208Z,0.00
2019-06-26T01:20:52.806Z,0.00
2019-06-26T01:21:53.109Z,0.00
2019-06-26T01:22:53.545Z,0.00
2019-06-26T01:23:53.995Z,0.00
2019-06-26T01:24:54.400Z,0.00
2019-06-26T01:25:54.896Z,0.00
2019-06-26T01:26:55.290Z,0.00
2019-06-26T01:27:55.720Z,0.00
2019-06-26T01:28:56.272Z,0.00
2019-06-26T01:29:56.574Z,0.00
2019-06-26T01:30:57.050Z,0.00
2019-06-26T01:31:57.453Z,0.00
2019-06-26T01:32:57.886Z,0.00
2019-06-26T01:33:58.361Z,0.00
2019-06-26T01:34:58.755Z,0.00
2019-06-26T01:35:59.210Z,0.00
2019-06-26T01:36:59.682Z,0.00
2019-06-26T01:38:00.056Z,0.00
2019-06-26T01:39:00.513Z,0.00
2019-06-26T01:40:00.931Z,0.00
2019-06-26T01:41:01.420Z,0.00
2019-06-26T01:42:01.779Z,0.00
2019-06-26T01:43:02.320Z,0.00
2019-06-26T01:44:13.668Z,0.00
2019-06-26T01:45:04.148Z,0.00
2019-06-26T01:46:03.539Z,0.00
2019-06-26T01:47:03.931Z,0.00
2019-06-26T01:48:04.368Z,0.00
2019-06-26T01:49:04.837Z,0.00
2019-06-26T01:50:05.265Z,0.00
2019-06-26T01:51:05.728Z,0.00
2019-06-26T01:52:06.122Z,0.00
2019-06-26T01:53:06.591Z,0.00
2019-06-26T01:54:07.081Z,0.00
2019-06-26T01:55:07.436Z,0.00
2019-06-26T01:56:08.094Z,0.00
2019-06-26T01:57:08.522Z,0.00
2019-06-26T01:58:08.738Z,0.00
2019-06-26T01:59:09.178Z,4.00
2019-06-26T02:00:09.681Z,4.00
2019-06-26T02:01:10.105Z,4.00
2019-06-26T02:02:10.613Z,4.00
2019-06-26T02:03:10.923Z,0.00
2019-06-26T02:04:11.357Z,4.00
2019-06-26T02:05:11.790Z,4.00
2019-06-26T02:06:12.282Z,4.00
2019-06-26T02:07:12.651Z,8.00
2019-06-26T02:08:13.088Z,4.00
2019-06-26T02:09:13.538Z,4.00
2019-06-26T02:10:14.077Z,8.00
2019-06-26T02:11:14.430Z,8.00
2019-06-26T02:12:14.831Z,8.00
2019-06-26T02:13:15.266Z,8.00
2019-06-26T02:14:29.614Z,12.00
2019-06-26T02:15:17.116Z,12.00
2019-06-26T02:16:16.581Z,12.00
2019-06-26T02:17:17.000Z,16.00
2019-06-26T02:18:17.498Z,20.00
2019-06-26T02:19:17.877Z,20.00
2019-06-26T02:20:18.272Z,20.00
2019-06-26T02:21:18.743Z,24.00
2019-06-26T02:22:19.307Z,24.00
2019-06-26T02:23:19.636Z,32.00
2019-06-26T02:24:20.076Z,32.00
2019-06-26T02:25:20.490Z,36.00
2019-06-26T02:26:20.985Z,40.00
2019-06-26T02:27:21.358Z,44.00
2019-06-26T02:28:21.816Z,48.00
2019-06-26T02:29:22.330Z,56.00
2019-06-26T02:30:22.676Z,56.00
2019-06-26T02:31:23.140Z,64.00
2019-06-26T02:32:23.572Z,72.00
2019-06-26T02:33:23.973Z,80.00
2019-06-26T02:34:24.480Z,84.00
2019-06-26T02:35:24.876Z,92.00
2019-06-26T02:36:25.312Z,96.00
2019-06-26T02:37:25.721Z,108.00
2019-06-26T02:38:26.146Z,120.00
2019-06-26T02:39:26.608Z,128.00
2019-06-26T02:40:27.024Z,140.00
2019-06-26T02:41:27.478Z,152.00
2019-06-26T02:42:27.946Z,164.00
2019-06-26T02:43:28.425Z,176.00
2019-06-26T02:44:28.811Z,192.00
2019-06-26T02:45:29.214Z,204.00
2019-06-26T02:46:29.671Z,220.00
2019-06-26T02:47:30.117Z,240.00
2019-06-26T02:48:30.501Z,260.00
2019-06-26T02:49:30.955Z,280.00
2019-06-26T02:50:31.378Z,304.00
2019-06-26T02:51:32.023Z,328.00
2019-06-26T02:52:32.265Z,356.00
2019-06-26T02:53:32.677Z,380.00
2019-06-26T02:54:33.144Z,404.00
2019-06-26T02:55:33.583Z,436.00
2019-06-26T02:56:34.031Z,460.00
2019-06-26T02:57:34.468Z,488.00
2019-06-26T02:58:34.891Z,516.00
2019-06-26T02:59:35.372Z,544.00
2019-06-26T03:00:35.734Z,572.00
2019-06-26T03:01:36.195Z,604.00
2019-06-26T03:02:36.647Z,640.00
2019-06-26T03:03:37.041Z,672.00
2019-06-26T03:04:37.497Z,712.00
2019-06-26T03:05:37.893Z,748.00
2019-06-26T03:06:38.365Z,784.00
2019-06-26T03:07:38.865Z,820.00
2019-06-26T03:08:39.206Z,856.00
2019-06-26T03:09:39.758Z,892.00
2019-06-26T03:10:40.081Z,932.00
2019-06-26T03:11:40.516Z,972.00
2019-06-26T03:12:40.964Z,1016.00
2019-06-26T03:13:41.390Z,1068.00
2019-06-26T03:14:41.846Z,1116.00
2019-06-26T03:15:42.308Z,1148.00
2019-06-26T03:16:42.709Z,1176.00
2019-06-26T03:17:54.111Z,1204.00
2019-06-26T03:18:44.574Z,1232.00
2019-06-26T03:19:44.026Z,1272.00
2019-06-26T03:20:44.435Z,1316.00
2019-06-26T03:21:44.908Z,1360.00
2019-06-26T03:22:45.298Z,1408.00
2019-06-26T03:23:45.746Z,1460.00
2019-06-26T03:24:46.295Z,1508.00
2019-06-26T03:25:46.609Z,1560.00
2019-06-26T03:26:47.073Z,1616.00
2019-06-26T03:27:47.483Z,1660.00
2019-06-26T03:28:47.916Z,1700.00
2019-06-26T03:29:48.369Z,1720.00
2019-06-26T03:30:48.818Z,1732.00
2019-06-26T03:31:49.277Z,1740.00
2019-06-26T03:32:49.828Z,1752.00
2019-06-26T03:33:50.117Z,1768.00
2019-06-26T03:34:50.551Z,1732.00
2019-06-26T03:35:51.231Z,1720.00
2019-06-26T03:36:51.438Z,1740.00
2019-06-26T03:37:51.880Z,1764.00
2019-06-26T03:38:52.280Z,1784.00
2019-06-26T03:39:52.719Z,1840.00
2019-06-26T03:40:53.240Z,1916.00
2019-06-26T03:41:53.618Z,1960.00
2019-06-26T03:42:54.041Z,1972.00
2019-06-26T03:43:54.459Z,1980.00
2019-06-26T03:44:54.904Z,1980.00
2019-06-26T03:45:55.338Z,1988.00
2019-06-26T03:46:55.778Z,2004.00
2019-06-26T03:47:56.211Z,2040.00
2019-06-26T03:48:56.651Z,2080.00
2019-06-26T03:49:57.028Z,2124.00
2019-06-26T03:50:57.482Z,2180.00
2019-06-26T03:51:57.954Z,2212.00
2019-06-26T03:52:58.374Z,2232.00
2019-06-26T03:53:58.784Z,2256.00
2019-06-26T03:54:59.227Z,2268.00
2019-06-26T03:55:59.665Z,2296.00
2019-06-26T03:57:00.170Z,2372.00
2019-06-26T03:58:00.548Z,2488.00
2019-06-26T03:59:00.975Z,2516.00
2019-06-26T04:00:01.907Z,2492.00
2019-06-26T04:01:01.887Z,2536.00
2019-06-26T04:02:02.311Z,2568.00
2019-06-26T04:03:02.716Z,2548.00
2019-06-26T04:04:03.148Z,2576.00
2019-06-26T04:05:03.603Z,2616.00
2019-06-26T04:06:04.132Z,2660.00
2019-06-26T04:07:04.452Z,2752.00
2019-06-26T04:08:04.892Z,2864.00
2019-06-26T04:09:05.322Z,2940.00
2019-06-26T04:10:05.771Z,3000.00
2019-06-26T04:11:06.217Z,3032.00
2019-06-26T04:12:06.643Z,3044.00
2019-06-26T04:13:07.085Z,3056.00
2019-06-26T04:14:07.566Z,3052.00
2019-06-26T04:15:07.934Z,3056.00
2019-06-26T04:16:08.384Z,3056.00
2019-06-26T04:17:08.810Z,3048.00
2019-06-26T04:18:09.232Z,3044.00
2019-06-26T04:19:09.681Z,3052.00
2019-06-26T04:20:10.111Z,3068.00
2019-06-26T04:21:10.568Z,3084.00
2019-06-26T04:22:11.115Z,3100.00
2019-06-26T04:23:11.415Z,3120.00
2019-06-26T04:24:11.817Z,3128.00
2019-06-26T04:25:12.268Z,3132.00
2019-06-26T04:26:12.720Z,3124.00
2019-06-26T04:27:13.138Z,3108.00
2019-06-26T04:28:13.571Z,3104.00
2019-06-26T04:29:14.006Z,3104.00
2019-06-26T04:30:14.476Z,3096.00
2019-06-26T04:31:14.880Z,3088.00
2019-06-26T04:32:15.318Z,3068.00
2019-06-26T04:33:15.733Z,3068.00
2019-06-26T04:34:16.183Z,3044.00
2019-06-26T04:35:16.618Z,3044.00
2019-06-26T04:36:17.056Z,3096.00
2019-06-26T04:37:17.506Z,3124.00
2019-06-26T04:38:17.997Z,3168.00
2019-06-26T04:39:18.349Z,3208.00
2019-06-26T04:40:20.326Z,3268.00
2019-06-26T04:41:19.230Z,3296.00
2019-06-26T04:42:19.673Z,3312.00
2019-06-26T04:43:20.113Z,3328.00
2019-06-26T04:44:20.566Z,3340.00
2019-06-26T04:45:20.978Z,3360.00
2019-06-26T04:46:21.453Z,3380.00
2019-06-26T04:47:21.900Z,3384.00
2019-06-26T04:48:22.279Z,3408.00
2019-06-26T04:49:22.733Z,3424.00
2019-06-26T04:50:23.147Z,3448.00
2019-06-26T04:51:23.601Z,3464.00
2019-06-26T04:52:24.034Z,3488.00
2019-06-26T04:53:24.439Z,3504.00
2019-06-26T04:54:24.938Z,3536.00
2019-06-26T04:55:25.469Z,3580.00
2019-06-26T04:56:25.765Z,3608.00
2019-06-26T04:57:26.194Z,3616.00
2019-06-26T04:58:26.619Z,3636.00
2019-06-26T04:59:27.082Z,3656.00
2019-06-26T05:00:27.504Z,3672.00
2019-06-26T05:01:27.959Z,3692.00
2019-06-26T05:02:28.410Z,3708.00
2019-06-26T05:03:28.941Z,3720.00
2019-06-26T05:04:29.253Z,3740.00
2019-06-26T05:05:38.898Z,3760.00
2019-06-26T05:06:31.126Z,3780.00
2019-06-26T05:07:30.554Z,3796.00
2019-06-26T05:08:30.974Z,3812.00
2019-06-26T05:09:31.406Z,3828.00
2019-06-26T05:10:31.835Z,3840.00
2019-06-26T05:11:32.381Z,3852.00
2019-06-26T05:12:33.517Z,3868.00
2019-06-26T05:13:33.136Z,3876.00
2019-06-26T05:14:33.810Z,3884.00
2019-06-26T05:15:33.988Z,3900.00
2019-06-26T05:16:34.452Z,3908.00
2019-06-26T05:17:34.911Z,3920.00
2019-06-26T05:18:35.309Z,3924.00
2019-06-26T05:19:35.793Z,3928.00
2019-06-26T05:20:36.137Z,3944.00
2019-06-26T05:21:36.613Z,3948.00
2019-06-26T05:22:37.060Z,3956.00
2019-06-26T05:23:37.484Z,3964.00
2019-06-26T05:24:37.940Z,3964.00
2019-06-26T05:25:38.364Z,3972.00
2019-06-26T05:26:38.821Z,3976.00
2019-06-26T05:27:39.274Z,3980.00
2019-06-26T05:28:39.733Z,3980.00
2019-06-26T05:29:40.108Z,3984.00
2019-06-26T05:30:40.533Z,3988.00
2019-06-26T05:31:40.939Z,3996.00
2019-06-26T05:32:41.402Z,4000.00
2019-06-26T05:33:41.838Z,4004.00
2019-06-26T05:34:42.290Z,4012.00
2019-06-26T05:35:42.719Z,4008.00
2019-06-26T05:36:43.260Z,4008.00
2019-06-26T05:37:43.602Z,4008.00
2019-06-26T05:38:44.576Z,4004.00
2019-06-26T05:39:44.489Z,4020.00
2019-06-26T05:40:44.908Z,4012.00
2019-06-26T05:41:45.344Z,4020.00
2019-06-26T05:42:45.806Z,4032.00
2019-06-26T05:43:46.233Z,4036.00
2019-06-26T05:44:46.840Z,4052.00
2019-06-26T05:45:47.102Z,4060.00
2019-06-26T05:46:47.540Z,4064.00
2019-06-26T05:47:47.995Z,4068.00
2019-06-26T05:48:48.409Z,4080.00
2019-06-26T05:49:48.881Z,4088.00
2019-06-26T05:50:49.295Z,4100.00
2019-06-26T05:51:49.789Z,4112.00
2019-06-26T05:52:50.234Z,4132.00
2019-06-26T05:53:50.568Z,4140.00
2019-06-26T05:54:51.048Z,4144.00
2019-06-26T05:55:51.456Z,4144.00
2019-06-26T05:56:51.957Z,4140.00
2019-06-26T05:57:52.411Z,4132.00
2019-06-26T05:58:52.762Z,4128.00
2019-06-26T05:59:53.213Z,4124.00
2019-06-26T06:00:53.683Z,4128.00
2019-06-26T06:01:54.067Z,4132.00
2019-06-26T06:02:54.509Z,4128.00
2019-06-26T06:03:54.926Z,4132.00
2019-06-26T06:04:55.376Z,4140.00
2019-06-26T06:05:55.775Z,4156.00
2019-06-26T06:06:56.253Z,4164.00
2019-06-26T06:07:56.686Z,4168.00
2019-06-26T06:08:57.187Z,4176.00
2019-06-26T06:09:57.616Z,4176.00
2019-06-26T06:10:58.256Z,4168.00
2019-06-26T06:11:58.445Z,4168.00
2019-06-26T06:12:58.881Z,4168.00
2019-06-26T06:13:59.307Z,4164.00
2019-06-26T06:14:59.742Z,4156.00
2019-06-26T06:16:00.167Z,4156.00
2019-06-26T06:17:00.631Z,4148.00
2019-06-26T06:18:01.180Z,4132.00
2019-06-26T06:19:01.469Z,4120.00
2019-06-26T06:20:02.101Z,4108.00
2019-06-26T06:21:02.337Z,4100.00
2019-06-26T06:22:02.776Z,4112.00
2019-06-26T06:23:03.223Z,4116.00
2019-06-26T06:24:03.656Z,4128.00
2019-06-26T06:25:04.141Z,4140.00
2019-06-26T06:26:04.658Z,4152.00
2019-06-26T06:27:04.981Z,4156.00
2019-06-26T06:28:05.410Z,4156.00
2019-06-26T06:29:05.831Z,4160.00
2019-06-26T06:30:06.286Z,4168.00
2019-06-26T06:31:06.705Z,4184.00
2019-06-26T06:32:07.159Z,4168.00
2019-06-26T06:33:07.575Z,4172.00
2019-06-26T06:34:08.092Z,4168.00
2019-06-26T06:35:08.443Z,4164.00
2019-06-26T06:36:09.634Z,4152.00
2019-06-26T06:37:09.319Z,4148.00
2019-06-26T06:38:09.758Z,4152.00
2019-06-26T06:39:10.159Z,4152.00
2019-06-26T06:40:10.605Z,4156.00
2019-06-26T06:41:11.039Z,4156.00
2019-06-26T06:42:11.552Z,4160.00
2019-06-26T06:43:11.910Z,4160.00
2019-06-26T06:44:12.333Z,4160.00
2019-06-26T06:45:12.756Z,4172.00
2019-06-26T06:46:13.227Z,4180.00
2019-06-26T06:47:13.673Z,4272.00
2019-06-26T06:48:14.111Z,4192.00
2019-06-26T06:49:14.528Z,4200.00
2019-06-26T06:50:15.221Z,4208.00
2019-06-26T06:51:15.391Z,4208.00
2019-06-26T06:52:16.595Z,4220.00
2019-06-26T06:53:16.277Z,4228.00
2019-06-26T06:54:16.697Z,4232.00
2019-06-26T06:55:17.135Z,4236.00
2019-06-26T06:56:17.580Z,4240.00
2019-06-26T06:57:18.017Z,4264.00
2019-06-26T06:58:18.495Z,4252.00
2019-06-26T06:59:18.964Z,4252.00
2019-06-26T07:00:19.317Z,4292.00
2019-06-26T07:01:19.753Z,4268.00
2019-06-26T07:02:20.585Z,4276.00
2019-06-26T07:03:20.672Z,4292.00
2019-06-26T07:04:21.089Z,4296.00
2019-06-26T07:05:21.522Z,4304.00
2019-06-26T07:06:21.982Z,4312.00
2019-06-26T07:07:22.508Z,4320.00
2019-06-26T07:08:22.841Z,4332.00
2019-06-26T07:09:23.261Z,4348.00
2019-06-26T07:10:23.695Z,4364.00
2019-06-26T07:11:24.148Z,4376.00
2019-06-26T07:12:24.576Z,4372.00
2019-06-26T07:13:25.025Z,4372.00
2019-06-26T07:14:25.452Z,4376.00
2019-06-26T07:15:25.961Z,4392.00
2019-06-26T07:16:26.324Z,4404.00
2019-06-26T07:17:26.748Z,4420.00
2019-06-26T07:18:27.178Z,4428.00
2019-06-26T07:19:27.613Z,4440.00
2019-06-26T07:20:28.045Z,4444.00
2019-06-26T07:21:28.497Z,4452.00
2019-06-26T07:22:28.931Z,4464.00
2019-06-26T07:23:29.404Z,4488.00
2019-06-26T07:24:29.758Z,4504.00
2019-06-26T07:25:30.212Z,4512.00
2019-06-26T07:26:30.659Z,4516.00
2019-06-26T07:27:31.095Z,4544.00
2019-06-26T07:28:31.539Z,4556.00
2019-06-26T07:29:31.967Z,4580.00
2019-06-26T07:30:32.357Z,4600.00
2019-06-26T07:31:32.892Z,4604.00
2019-06-26T07:32:33.249Z,4628.00
2019-06-26T07:33:33.717Z,4648.00
2019-06-26T07:34:34.113Z,4660.00
2019-06-26T07:35:34.579Z,4656.00
2019-06-26T07:36:35.000Z,4664.00
2019-06-26T07:37:35.449Z,4676.00
2019-06-26T07:38:35.883Z,4692.00
2019-06-26T07:39:36.340Z,4708.00
2019-06-26T07:40:36.795Z,4716.00
2019-06-26T07:41:37.187Z,4736.00
2019-06-26T07:42:37.623Z,4748.00
2019-06-26T07:43:38.056Z,4764.00
2019-06-26T07:44:38.472Z,4764.00
2019-06-26T07:45:38.916Z,4768.00
2019-06-26T07:46:39.349Z,4780.00
2019-06-26T07:47:43.504Z,4788.00
2019-06-26T07:48:40.362Z,4800.00
2019-06-26T07:49:40.651Z,4804.00
2019-06-26T07:50:41.076Z,4816.00
2019-06-26T07:51:41.506Z,4832.00
2019-06-26T07:52:41.956Z,4852.00
2019-06-26T07:53:42.402Z,4860.00
2019-06-26T07:54:42.829Z,4888.00
2019-06-26T07:55:43.616Z,4900.00
2019-06-26T07:56:43.807Z,4920.00
2019-06-26T07:57:44.138Z,4932.00
2019-06-26T07:58:44.597Z,4932.00
2019-06-26T07:59:45.034Z,4940.00
2019-06-26T08:00:45.486Z,4952.00
2019-06-26T08:01:45.917Z,4956.00
2019-06-26T08:02:46.334Z,4964.00
2019-06-26T08:03:46.786Z,4980.00
2019-06-26T08:04:47.254Z,5012.00
2019-06-26T08:05:47.635Z,5020.00
2019-06-26T08:06:48.091Z,5024.00
2019-06-26T08:07:48.522Z,5044.00
2019-06-26T08:08:48.926Z,5064.00
2019-06-26T08:09:49.389Z,5100.00
2019-06-26T08:10:49.829Z,5124.00
2019-06-26T08:11:50.277Z,5128.00
2019-06-26T08:12:50.842Z,5168.00
2019-06-26T08:13:51.149Z,5152.00
2019-06-26T08:14:51.545Z,5132.00
2019-06-26T08:15:51.986Z,5128.00
2019-06-26T08:16:52.473Z,5136.00
2019-06-26T08:18:00.691Z,5140.00
2019-06-26T08:18:54.316Z,5196.00
2019-06-26T08:19:53.765Z,5180.00
2019-06-26T08:21:10.842Z,5220.00
2019-06-26T08:21:55.684Z,5244.00
2019-06-26T08:22:55.063Z,5224.00
2019-06-26T08:23:55.473Z,5216.00
2019-06-26T08:24:55.936Z,5192.00
2019-06-26T08:25:56.335Z,5168.00
2019-06-26T08:26:56.790Z,5156.00
2019-06-26T08:27:57.241Z,5160.00
2019-06-26T08:28:57.672Z,5184.00
2019-06-26T08:29:58.236Z,5196.00
2019-06-26T08:30:58.509Z,5228.00
2019-06-26T08:31:59.205Z,5248.00
2019-06-26T08:32:59.417Z,5260.00
2019-06-26T08:33:59.822Z,5288.00
2019-06-26T08:35:00.322Z,5304.00
2019-06-26T08:36:00.694Z,5340.00
2019-06-26T08:37:01.152Z,5320.00
2019-06-26T08:38:09.767Z,5308.00
2019-06-26T08:39:02.998Z,5336.00
2019-06-26T08:40:02.448Z,5404.00
2019-06-26T08:41:02.865Z,5352.00
2019-06-26T08:42:03.328Z,5368.00
2019-06-26T08:43:03.732Z,5368.00
2019-06-26T08:44:04.179Z,5372.00
2019-06-26T08:45:04.664Z,5396.00
2019-06-26T08:46:05.102Z,5432.00
2019-06-26T08:47:05.475Z,5428.00
2019-06-26T08:48:17.329Z,5364.00
2019-06-26T08:49:20.949Z,5248.00
2019-06-26T08:50:07.783Z,5240.00
2019-06-26T08:51:07.216Z,5304.00
2019-06-26T08:52:07.654Z,5396.00
2019-06-26T08:53:08.088Z,5472.00
2019-06-26T08:54:08.552Z,5556.00
2019-06-26T08:55:08.940Z,5616.00
2019-06-26T08:56:09.372Z,5660.00
2019-06-26T08:57:09.812Z,5708.00
2019-06-26T08:58:10.269Z,5776.00
2019-06-26T08:59:10.671Z,5820.00
2019-06-26T09:00:11.201Z,5872.00
2019-06-26T09:01:11.553Z,5884.00
2019-06-26T09:02:12.028Z,5876.00
2019-06-26T09:03:12.529Z,5928.00
2019-06-26T09:04:12.878Z,5936.00
2019-06-26T09:05:13.318Z,5976.00
2019-06-26T09:06:13.747Z,5992.00
2019-06-26T09:07:14.198Z,6000.00
2019-06-26T09:08:14.775Z,5984.00
2019-06-26T09:09:15.087Z,5968.00
2019-06-26T09:10:15.553Z,5988.00
2019-06-26T09:11:16.073Z,5988.00
2019-06-26T09:12:16.391Z,6000.00
2019-06-26T09:13:16.875Z,6016.00
2019-06-26T09:14:17.265Z,6028.00
2019-06-26T09:15:17.716Z,6032.00
2019-06-26T09:16:18.126Z,6020.00
2019-06-26T09:17:18.562Z,6060.00
2019-06-26T09:18:31.096Z,6052.00
2019-06-26T09:19:20.615Z,6088.00
2019-06-26T09:20:19.924Z,6128.00
2019-06-26T09:21:20.317Z,6148.00
2019-06-26T09:22:20.769Z,6120.00
2019-06-26T09:23:21.244Z,6144.00
2019-06-26T09:24:21.637Z,6180.00
2019-06-26T09:25:22.665Z,6264.00
2019-06-26T09:26:22.508Z,6360.00
2019-06-26T09:27:22.983Z,6420.00
2019-06-26T09:28:23.395Z,6440.00
2019-06-26T09:29:24.200Z,6436.00
2019-06-26T09:30:24.258Z,6472.00
2019-06-26T09:31:24.667Z,6596.00
2019-06-26T09:32:25.090Z,6644.00
2019-06-26T09:33:25.559Z,6668.00
2019-06-26T09:34:25.976Z,6684.00
2019-06-26T09:35:26.534Z,6692.00
2019-06-26T09:36:26.822Z,6724.00
2019-06-26T09:37:27.265Z,6712.00
2019-06-26T09:38:27.741Z,6692.00
2019-06-26T09:39:28.115Z,6684.00
2019-06-26T09:40:31.595Z,6688.00
2019-06-26T09:41:29.052Z,6696.00
2019-06-26T09:42:29.447Z,6692.00
2019-06-26T09:43:29.955Z,6656.00
2019-06-26T09:44:30.371Z,6612.00
2019-06-26T09:45:30.769Z,6592.00
2019-06-26T09:46:31.181Z,6616.00
2019-06-26T09:47:31.607Z,6636.00
2019-06-26T09:48:32.100Z,6608.00
2019-06-26T09:49:32.536Z,6552.00
2019-06-26T09:50:32.925Z,6512.00
2019-06-26T09:51:33.381Z,6452.00
2019-06-26T09:52:33.917Z,6476.00
2019-06-26T09:53:45.939Z,6468.00
2019-06-26T09:54:35.649Z,6460.00
2019-06-26T09:55:35.114Z,6348.00
2019-06-26T09:56:35.546Z,6236.00
2019-06-26T09:57:36.063Z,6308.00
2019-06-26T09:58:36.439Z,6448.00
2019-06-26T09:59:36.852Z,6604.00
2019-06-26T10:00:37.431Z,6708.00
2019-06-26T10:01:37.734Z,6764.00
2019-06-26T10:02:38.195Z,6804.00
2019-06-26T10:03:38.609Z,6868.00
2019-06-26T10:04:39.028Z,6892.00
2019-06-26T10:05:39.450Z,7008.00
2019-06-26T10:06:39.883Z,7124.00
2019-06-26T10:07:40.357Z,7168.00
2019-06-26T10:08:40.878Z,7336.00
2019-06-26T10:09:41.245Z,7400.00
2019-06-26T10:10:41.623Z,7508.00
2019-06-26T10:11:42.134Z,7596.00
2019-06-26T10:12:42.539Z,7736.00
2019-06-26T10:13:42.965Z,7868.00
2019-06-26T10:14:47.838Z,7984.00
2019-06-26T10:15:43.825Z,8028.00
2019-06-26T10:16:44.326Z,8028.00
2019-06-26T10:17:44.692Z,7944.00
2019-06-26T10:18:45.149Z,7824.00
2019-06-26T10:19:45.568Z,7724.00
2019-06-26T10:20:46.005Z,7616.00
2019-06-26T10:21:46.467Z,7428.00
2019-06-26T10:22:46.865Z,7116.00
2019-06-26T10:23:47.309Z,6824.00
2019-06-26T10:24:47.814Z,6628.00
2019-06-26T10:25:48.203Z,6672.00
2019-06-26T10:26:48.669Z,6824.00
2019-06-26T10:27:49.069Z,6688.00
2019-06-26T10:28:49.529Z,6508.00
2019-06-26T10:29:49.922Z,6308.00
2019-06-26T10:30:50.417Z,6188.00
2019-06-26T10:31:50.851Z,6188.00
2019-06-26T10:32:51.255Z,6168.00
2019-06-26T10:33:51.805Z,6124.00
2019-06-26T10:34:52.172Z,5980.00
2019-06-26T10:35:52.544Z,5832.00
2019-06-26T10:36:53.026Z,5672.00
2019-06-26T10:37:53.423Z,6008.00
2019-06-26T10:38:53.868Z,6368.00
2019-06-26T10:39:54.284Z,6400.00
2019-06-26T10:40:54.711Z,6592.00
2019-06-26T10:41:55.393Z,6888.00
2019-06-26T10:42:55.591Z,6984.00
2019-06-26T10:43:56.044Z,6456.00
2019-06-26T10:44:56.463Z,7192.00
2019-06-26T10:45:56.905Z,6828.00
2019-06-26T10:46:57.399Z,6260.00
2019-06-26T10:47:57.793Z,6024.00
2019-06-26T10:48:58.243Z,6360.00
2019-06-26T10:49:58.751Z,6336.00
2019-06-26T10:50:59.228Z,6160.00
2019-06-26T10:51:59.570Z,6256.00
2019-06-26T10:52:59.960Z,6396.00
2019-06-26T10:54:00.395Z,6644.00
2019-06-26T10:55:00.842Z,7016.00
2019-06-26T10:56:01.278Z,7188.00
2019-06-26T10:57:01.723Z,7188.00
2019-06-26T10:58:02.187Z,7180.00
2019-06-26T10:59:02.574Z,6948.00
2019-06-26T11:00:02.994Z,6484.00
2019-06-26T11:01:03.445Z,5500.00
2019-06-26T11:02:03.881Z,6132.00
2019-06-26T11:03:04.284Z,6364.00
2019-06-26T11:04:04.754Z,6468.00
2019-06-26T11:05:05.195Z,6580.00
2019-06-26T11:06:05.631Z,6708.00
2019-06-26T11:07:06.090Z,6808.00
2019-06-26T11:08:06.495Z,6860.00
2019-06-26T11:09:06.953Z,6868.00
2019-06-26T11:10:07.422Z,6832.00
2019-06-26T11:11:07.834Z,6920.00
2019-06-26T11:12:08.295Z,6820.00
2019-06-26T11:13:08.705Z,6780.00
2019-06-26T11:14:09.158Z,6748.00
2019-06-26T11:15:09.687Z,6748.00
2019-06-26T11:16:10.047Z,6948.00
2019-06-26T11:17:10.496Z,7304.00
2019-06-26T11:18:10.914Z,7236.00
2019-06-26T11:19:11.344Z,6960.00
2019-06-26T11:20:11.815Z,6700.00
2019-06-26T11:21:12.251Z,6692.00
2019-06-26T11:22:12.722Z,6748.00
2019-06-26T11:23:13.264Z,6764.00
2019-06-26T11:24:13.543Z,7024.00
2019-06-26T11:25:14.028Z,7032.00
2019-06-26T11:26:14.418Z,6700.00
2019-06-26T11:27:14.869Z,7608.00
2019-06-26T11:28:15.288Z,7688.00
2019-06-26T11:29:15.733Z,7084.00
2019-06-26T11:30:16.186Z,7724.00
2019-06-26T11:31:16.736Z,8032.00
2019-06-26T11:32:17.061Z,8208.00
2019-06-26T11:33:17.485Z,9172.00
2019-06-26T11:34:17.939Z,10132.00
2019-06-26T11:35:18.353Z,10632.00
2019-06-26T11:36:18.930Z,10868.00
2019-06-26T11:37:22.645Z,10396.00
2019-06-26T11:38:19.676Z,10296.00
2019-06-26T11:39:20.182Z,10452.00
2019-06-26T11:40:20.545Z,10236.00
2019-06-26T11:41:20.959Z,10472.00
2019-06-26T11:42:21.431Z,11432.00
2019-06-26T11:43:21.860Z,9968.00
2019-06-26T11:44:22.314Z,9168.00
2019-06-26T11:45:22.751Z,9568.00
2019-06-26T11:46:23.164Z,10924.00
2019-06-26T11:47:23.659Z,11124.00
2019-06-26T11:48:24.021Z,11256.00
2019-06-26T11:49:24.470Z,11660.00
2019-06-26T11:50:25.162Z,12572.00
2019-06-26T11:51:25.338Z,14196.00
2019-06-26T11:52:25.793Z,14604.00
2019-06-26T11:53:26.195Z,13912.00
2019-06-26T11:54:26.667Z,13020.00
2019-06-26T11:55:27.138Z,11768.00
2019-06-26T11:56:27.608Z,11736.00
2019-06-26T11:57:28.027Z,12224.00
2019-06-26T11:58:28.506Z,12228.00
2019-06-26T11:59:29.077Z,12032.00
2019-06-26T12:00:29.290Z,12332.00
2019-06-26T12:12:02.538Z,13504.00
2019-06-26T12:12:37.895Z,13308.00
2019-06-26T12:13:38.313Z,12884.00
2019-06-26T12:17:47.464Z,10768.00
2019-06-26T12:18:09.866Z,10928.00
2019-06-26T12:19:10.395Z,10924.00
2019-06-26T12:20:18.370Z,10308.00
2019-06-26T12:21:12.219Z,9760.00
2019-06-26T12:22:11.716Z,9540.00
2019-06-26T12:23:12.072Z,9996.00
2019-06-26T12:24:12.538Z,9544.00
2019-06-26T12:25:12.994Z,8728.00
2019-06-26T12:26:13.408Z,9304.00
2019-06-26T12:27:13.813Z,9988.00
2019-06-26T12:28:14.296Z,8876.00
2019-06-26T12:29:14.728Z,8340.00
2019-06-26T12:30:15.446Z,8708.00
2019-06-26T12:31:15.578Z,9048.00
2019-06-26T12:32:16.013Z,9628.00
2019-06-26T12:33:16.460Z,9964.00
2019-06-26T12:34:16.916Z,9956.00
2019-06-26T12:35:17.357Z,9528.00
2019-06-26T12:36:17.804Z,10404.00
2019-06-26T12:37:18.214Z,10784.00